Time;durP1;ratioP1;P1;durP2;ratioP2;P2;SDS_P1;SDS_P2;PMS_P1;PMS_P2;Temp;Humidity;BMP_temperature;BMP_pressure;BME280_temperature;BME280_humidity;BME280_pressure;Samples;Min_cycle;Max_cycle;Signal;HPM_P1;HPM_P2
2023/01/12 00:01:47;;;;;;;4.50;2.00;;;7.50;79.90;;;;;;5031325;28;20515;-76
2023/01/12 00:04:14;;;;;;;5.43;1.80;;;7.40;80.20;;;;;;5031568;28;21374;-76
2023/01/12 00:06:40;;;;;;;3.80;1.83;;;7.40;80.30;;;;;;5027761;28;20209;-75
2023/01/12 00:09:06;;;;;;;4.60;2.20;;;7.50;80.30;;;;;;5023950;28;20504;-75
2023/01/12 00:11:32;;;;;;;5.27;2.00;;;7.40;80.30;;;;;;5027513;28;20525;-76
2023/01/12 00:13:58;;;;;;;4.40;1.50;;;7.40;80.60;;;;;;5027895;28;20437;-76
2023/01/12 00:16:33;;;;;;;4.60;1.47;;;7.30;80.60;;;;;;5024123;28;20832;-74
2023/01/12 00:19:10;;;;;;;5.90;1.83;;;7.40;80.80;;;;;;5031502;28;20173;-74
2023/01/12 00:21:47;;;;;;;4.73;1.43;;;7.30;80.90;;;;;;5030282;28;20510;-74
2023/01/12 00:24:13;;;;;;;4.37;1.50;;;7.30;81.20;;;;;;5030961;28;20435;-75
2023/01/12 00:26:42;;;;;;;8.43;2.23;;;7.20;81.40;;;;;;5024456;28;20459;-75
2023/01/12 00:29:08;;;;;;;3.83;1.60;;;7.20;81.70;;;;;;5034069;28;20794;-74
2023/01/12 00:31:33;;;;;;;6.03;2.40;;;7.20;81.70;;;;;;5029913;28;20468;-76
2023/01/12 00:33:59;;;;;;;6.70;2.20;;;7.20;81.80;;;;;;5042266;28;20188;-76
2023/01/12 00:36:24;;;;;;;7.43;2.17;;;7.20;81.80;;;;;;5034149;28;20252;-76
2023/01/12 00:38:50;;;;;;;2.80;1.80;;;7.20;82.10;;;;;;5027500;28;20231;-75
2023/01/12 00:45:20;;;;;;;5.30;2.00;;;7.30;81.80;;;;;;5036954;28;20216;-75
2023/01/12 00:46:47;;;;;;;4.10;2.23;;;7.30;81.50;;;;;;5031169;28;20483;-76
2023/01/12 00:49:13;;;;;;;6.53;2.13;;;7.40;81.20;;;;;;5026999;28;20421;-76
2023/01/12 00:51:39;;;;;;;4.90;1.93;;;7.40;81.20;;;;;;5029302;28;20201;-76
2023/01/12 00:54:07;;;;;;;5.33;2.10;;;7.40;80.90;;;;;;5028240;28;20188;-76
2023/01/12 00:56:33;;;;;;;5.70;1.73;;;7.50;80.80;;;;;;5021001;28;20212;-74
2023/01/12 00:58:59;;;;;;;3.43;1.53;;;7.50;80.80;;;;;;5033547;28;20439;-75
2023/01/12 01:01:25;;;;;;;5.23;1.73;;;7.70;80.30;;;;;;5032224;28;20416;-76
2023/01/12 01:03:50;;;;;;;3.67;1.57;;;7.70;79.70;;;;;;5030128;28;20954;-76
2023/01/12 01:06:16;;;;;;;4.77;1.87;;;7.80;79.30;;;;;;5029731;28;20221;-77
2023/01/12 01:08:42;;;;;;;3.63;1.57;;;7.80;79.00;;;;;;5029515;28;20557;-76
2023/01/12 01:11:10;;;;;;;5.87;2.17;;;7.90;78.90;;;;;;5031885;28;20224;-76
2023/01/12 01:13:36;;;;;;;4.93;1.70;;;7.90;78.90;;;;;;5028827;28;20181;-75
2023/01/12 01:16:03;;;;;;;6.80;1.93;;;7.90;78.70;;;;;;5029364;28;20440;-76
2023/01/12 01:18:30;;;;;;;6.37;1.87;;;8.00;78.60;;;;;;5027418;28;20420;-75
2023/01/12 01:20:56;;;;;;;4.70;1.80;;;8.00;78.70;;;;;;5028397;28;20419;-75
2023/01/12 01:23:24;;;;;;;5.50;2.03;;;8.00;78.60;;;;;;5027587;28;20423;-76
2023/01/12 01:25:50;;;;;;;6.00;2.03;;;8.00;78.70;;;;;;5031847;28;20499;-77
2023/01/12 01:28:16;;;;;;;5.43;1.73;;;8.00;78.60;;;;;;5024356;28;20449;-75
2023/01/12 01:30:42;;;;;;;5.30;2.27;;;8.00;78.40;;;;;;5031084;28;20485;-74
2023/01/12 01:33:08;;;;;;;2.90;1.60;;;8.00;78.70;;;;;;5027608;28;20417;-76
2023/01/12 01:35:35;;;;;;;5.10;1.70;;;7.90;78.70;;;;;;5025254;28;20980;-76
2023/01/12 01:38:01;;;;;;;7.67;2.50;;;7.90;78.70;;;;;;5032139;28;20224;-75
2023/01/12 01:40:26;;;;;;;5.20;1.83;;;7.90;78.70;;;;;;5047106;28;20416;-75
2023/01/12 01:42:52;;;;;;;6.63;1.80;;;7.90;78.60;;;;;;5040760;28;20425;-76
2023/01/12 01:45:17;;;;;;;6.67;1.60;;;7.90;78.60;;;;;;5048471;28;20182;-75
2023/01/12 01:47:50;;;;;;;4.33;1.90;;;7.90;78.40;;;;;;5035202;28;20237;-75
2023/01/12 01:50:37;;;;;;;7.17;2.10;;;7.90;78.60;;;;;;5044966;28;20181;-74
2023/01/12 01:53:06;;;;;;;4.67;2.00;;;7.90;78.70;;;;;;5038036;28;20515;-76
2023/01/12 01:55:40;;;;;;;12.50;2.20;;;7.90;78.70;;;;;;5039406;28;20412;-74
2023/01/12 01:58:18;;;;;;;6.00;2.13;;;8.00;78.60;;;;;;5044642;28;20476;-75
2023/01/12 02:00:45;;;;;;;5.17;2.30;;;8.00;78.40;;;;;;5051735;28;20411;-75
2023/01/12 02:03:12;;;;;;;7.00;2.00;;;8.00;78.40;;;;;;5049132;28;20502;-74
2023/01/12 02:05:42;;;;;;;7.00;1.83;;;8.00;78.10;;;;;;5046183;28;20430;-74
2023/01/12 02:08:22;;;;;;;4.90;1.70;;;8.10;78.10;;;;;;5032777;28;20447;-75
2023/01/12 02:10:48;;;;;;;5.97;1.70;;;8.10;78.10;;;;;;5032249;28;20515;-74
2023/01/12 02:16:19;;;;;;;7.40;1.63;;;8.20;78.00;;;;;;5040189;28;20423;-75
2023/01/12 02:19:27;;;;;;;4.73;1.77;;;8.20;77.60;;;;;;5039145;28;20423;-76
2023/01/12 02:22:08;;;;;;;7.40;1.80;;;8.20;77.60;;;;;;5033186;28;20415;-75
2023/01/12 02:24:55;;;;;;;6.60;2.10;;;8.20;77.60;;;;;;5030827;28;20450;-75
2023/01/12 02:27:36;;;;;;;6.53;1.87;;;8.20;77.60;;;;;;5030732;28;20473;-75
2023/01/12 02:30:26;;;;;;;8.17;1.87;;;8.20;77.60;;;;;;5027153;28;20428;-75
2023/01/12 02:33:14;;;;;;;8.83;1.90;;;8.20;77.60;;;;;;5028258;28;20475;-74
2023/01/12 02:36:07;;;;;;;7.97;1.70;;;8.20;77.70;;;;;;5038256;28;20422;-76
2023/01/12 02:38:35;;;;;;;12.60;2.97;;;8.20;77.40;;;;;;5028923;28;20785;-75
2023/01/12 02:41:17;;;;;;;9.70;2.17;;;8.10;77.60;;;;;;5027123;28;20933;-76
2023/01/12 02:43:43;;;;;;;4.10;1.90;;;8.10;77.70;;;;;;5031100;28;20446;-75
2023/01/12 02:46:26;;;;;;;4.73;2.27;;;8.20;77.70;;;;;;5029038;28;20459;-75
2023/01/12 02:49:06;;;;;;;4.30;1.60;;;8.20;77.80;;;;;;5034648;28;20460;-75
2023/01/12 02:51:54;;;;;;;5.70;2.10;;;8.20;77.60;;;;;;5026380;28;20463;-75
2023/01/12 02:54:21;;;;;;;5.03;2.20;;;8.10;77.80;;;;;;5032133;28;20494;-75
2023/01/12 02:56:49;;;;;;;8.20;2.20;;;8.10;77.60;;;;;;5031926;28;20451;-75
2023/01/12 02:59:25;;;;;;;5.83;2.00;;;8.10;77.60;;;;;;5033815;28;20489;-76
2023/01/12 03:01:56;;;;;;;6.00;1.93;;;8.10;77.60;;;;;;5033188;28;20962;-73
2023/01/12 03:04:23;;;;;;;9.90;1.93;;;8.10;77.70;;;;;;5031304;28;20444;-75
2023/01/12 03:06:55;;;;;;;10.10;2.07;;;8.10;77.70;;;;;;5025500;28;20997;-73
2023/01/12 03:09:34;;;;;;;6.50;2.10;;;8.10;77.80;;;;;;5032800;28;20515;-74
2023/01/12 03:12:05;;;;;;;10.53;2.50;;;8.00;78.00;;;;;;5036501;28;20547;-74
2023/01/12 03:14:34;;;;;;;5.87;2.57;;;8.00;78.00;;;;;;5033131;28;20424;-76
2023/01/12 03:17:05;;;;;;;4.07;1.77;;;8.00;78.00;;;;;;5032972;28;20479;-75
2023/01/12 03:19:32;;;;;;;9.00;2.53;;;7.90;78.30;;;;;;5036937;28;20442;-74
2023/01/12 03:22:06;;;;;;;6.87;1.90;;;8.00;78.60;;;;;;5044758;28;20419;-74
2023/01/12 03:24:46;;;;;;;4.77;1.80;;;7.90;78.40;;;;;;5031752;28;20853;-75
2023/01/12 03:27:18;;;;;;;4.57;2.13;;;8.00;78.60;;;;;;5026513;28;20456;-76
2023/01/12 03:29:53;;;;;;;5.50;2.03;;;7.90;78.60;;;;;;5037097;28;21249;-73
2023/01/12 03:32:20;;;;;;;8.87;2.53;;;7.90;78.60;;;;;;5035561;28;20961;-74
2023/01/12 03:34:46;;;;;;;7.50;2.70;;;7.90;78.70;;;;;;5036793;28;20440;-74
2023/01/12 03:37:33;;;;;;;4.50;1.93;;;7.80;78.70;;;;;;5035809;28;20838;-75
2023/01/12 03:40:10;;;;;;;10.10;2.40;;;7.80;78.90;;;;;;5030061;28;20255;-75
2023/01/12 03:42:48;;;;;;;8.20;2.00;;;7.80;78.90;;;;;;5029907;28;20497;-75
2023/01/12 03:45:44;;;;;;;8.27;2.30;;;7.80;78.70;;;;;;5030034;28;20531;-75
2023/01/12 03:48:26;;;;;;;5.23;2.27;;;7.80;78.90;;;;;;5027143;28;20443;-75
2023/01/12 03:51:13;;;;;;;3.83;1.93;;;7.80;79.00;;;;;;5027826;28;20910;-75
2023/01/12 03:53:40;;;;;;;5.23;1.80;;;7.80;79.00;;;;;;5026578;28;20419;-75
2023/01/12 03:56:08;;;;;;;4.03;1.87;;;7.80;79.00;;;;;;5029465;28;20446;-73
2023/01/12 03:58:35;;;;;;;8.03;1.80;;;7.80;79.00;;;;;;5031381;28;20444;-75
2023/01/12 04:01:01;;;;;;;6.87;2.23;;;7.90;79.00;;;;;;5027904;28;20524;-75
2023/01/12 04:03:27;;;;;;;4.67;1.83;;;7.90;79.00;;;;;;5030377;28;20819;-75
2023/01/12 04:05:52;;;;;;;10.00;1.70;;;7.90;79.20;;;;;;5026901;28;20485;-74
2023/01/12 04:08:18;;;;;;;9.87;2.77;;;7.90;79.20;;;;;;5033096;28;20239;-74
2023/01/12 04:10:44;;;;;;;7.20;2.20;;;7.90;79.00;;;;;;5021699;28;20213;-75
2023/01/12 04:13:10;;;;;;;11.30;1.70;;;8.00;79.00;;;;;;5027477;28;20235;-76
2023/01/12 04:15:40;;;;;;;8.10;2.10;;;8.00;78.90;;;;;;5023966;28;20519;-73
2023/01/12 04:18:10;;;;;;;3.90;1.80;;;8.00;78.90;;;;;;5023231;28;20538;-75
2023/01/12 04:20:36;;;;;;;4.57;1.97;;;8.00;78.90;;;;;;5025099;28;20978;-75
2023/01/12 04:23:02;;;;;;;6.33;1.93;;;8.00;78.90;;;;;;5025137;28;20474;-74
2023/01/12 04:25:28;;;;;;;8.97;2.20;;;8.00;78.90;;;;;;5024859;28;20424;-73
2023/01/12 04:27:56;;;;;;;6.93;2.30;;;8.00;78.90;;;;;;5028058;28;20206;-74
2023/01/12 04:30:25;;;;;;;6.33;2.30;;;8.10;79.00;;;;;;5024532;28;20225;-74
2023/01/12 04:32:51;;;;;;;7.13;2.63;;;8.10;79.00;;;;;;5027449;28;20500;-74
2023/01/12 04:35:17;;;;;;;7.20;1.87;;;8.10;78.90;;;;;;5027080;28;20470;-75
2023/01/12 04:37:43;;;;;;;11.43;2.30;;;8.10;78.90;;;;;;5025771;28;20224;-74
2023/01/12 04:40:11;;;;;;;7.50;2.13;;;8.20;78.60;;;;;;5024468;28;20213;-74
2023/01/12 04:45:22;;;;;;;4.20;1.70;;;8.20;78.60;;;;;;5026783;28;20614;-74
2023/01/12 04:47:47;;;;;;;14.30;2.43;;;8.20;78.60;;;;;;5021817;28;20464;-76
2023/01/12 04:50:13;;;;;;;7.13;3.00;;;8.20;78.90;;;;;;5041583;28;20522;-75
2023/01/12 04:52:39;;;;;;;5.83;1.80;;;8.20;78.70;;;;;;5023989;28;20213;-74
2023/01/12 04:55:05;;;;;;;6.10;2.63;;;8.20;78.70;;;;;;5028778;28;20181;-74
2023/01/12 04:57:31;;;;;;;5.83;2.40;;;8.20;78.70;;;;;;5023981;28;20256;-75
2023/01/12 04:59:56;;;;;;;6.50;2.30;;;8.20;78.60;;;;;;5031504;28;20456;-75
2023/01/12 05:02:22;;;;;;;10.77;2.60;;;8.20;78.60;;;;;;5032343;28;20204;-75
2023/01/12 05:04:48;;;;;;;8.40;2.50;;;8.30;78.40;;;;;;5029891;28;20523;-76
2023/01/12 05:07:14;;;;;;;6.63;1.83;;;8.30;78.40;;;;;;5036173;28;20217;-75
2023/01/12 05:12:25;;;;;;;6.80;2.43;;;8.30;78.30;;;;;;5026590;28;20459;-75
2023/01/12 05:14:51;;;;;;;8.23;2.23;;;8.30;78.40;;;;;;5031560;28;20416;-76
2023/01/12 05:17:17;;;;;;;9.40;2.33;;;8.30;78.40;;;;;;5027380;28;20451;-76
2023/01/12 05:19:43;;;;;;;8.33;2.30;;;8.30;78.40;;;;;;5029273;28;20307;-75
2023/01/12 05:22:08;;;;;;;6.13;1.90;;;8.30;78.40;;;;;;5028691;28;20419;-76
2023/01/12 05:24:34;;;;;;;8.20;2.17;;;8.30;78.10;;;;;;5027850;28;20267;-74
2023/01/12 05:27:00;;;;;;;7.07;2.07;;;8.30;78.10;;;;;;5018298;28;20209;-75
2023/01/12 05:29:26;;;;;;;4.33;2.00;;;8.40;78.00;;;;;;5028146;28;20272;-75
2023/01/12 05:31:52;;;;;;;8.87;2.37;;;8.40;78.00;;;;;;5029410;28;20470;-76
2023/01/12 05:34:19;;;;;;;8.30;2.30;;;8.40;77.70;;;;;;5032842;28;20426;-76
2023/01/12 05:36:45;;;;;;;7.00;2.37;;;8.50;77.60;;;;;;5027866;28;20483;-76
2023/01/12 05:39:11;;;;;;;10.00;2.67;;;8.50;77.70;;;;;;5028194;28;20487;-75
2023/01/12 05:41:36;;;;;;;13.77;2.60;;;8.50;77.60;;;;;;5028754;28;20557;-75
2023/01/12 05:44:02;;;;;;;5.03;1.50;;;8.50;77.60;;;;;;5027961;28;20208;-76
2023/01/12 05:46:32;;;;;;;5.90;1.90;;;8.50;77.40;;;;;;5028314;28;20312;-74
2023/01/12 05:48:57;;;;;;;11.97;2.97;;;8.50;77.30;;;;;;5033176;28;20195;-75
2023/01/12 05:51:25;;;;;;;8.53;1.90;;;8.50;77.30;;;;;;5033659;28;20543;-76
2023/01/12 05:53:50;;;;;;;7.23;2.17;;;8.50;77.30;;;;;;5027399;28;20264;-74
2023/01/12 05:56:20;;;;;;;5.57;2.40;;;8.60;77.10;;;;;;5030685;28;20505;-76
2023/01/12 05:58:57;;;;;;;6.40;1.97;;;8.50;77.30;;;;;;5038837;28;20201;-74
2023/01/12 06:01:23;;;;;;;14.30;2.17;;;8.60;77.10;;;;;;5033487;28;20527;-76
2023/01/12 06:03:53;;;;;;;11.10;3.03;;;8.60;77.10;;;;;;5038150;28;20459;-76
2023/01/12 06:06:21;;;;;;;5.50;2.07;;;8.50;77.30;;;;;;5038725;28;20262;-74
2023/01/12 06:08:47;;;;;;;13.40;2.73;;;8.50;77.30;;;;;;5033162;28;20431;-75
2023/01/12 06:13:59;;;;;;;6.90;2.17;;;8.50;77.30;;;;;;5030363;28;20503;-76
2023/01/12 06:16:25;;;;;;;10.00;2.23;;;8.50;77.40;;;;;;5028704;28;20463;-76
2023/01/12 06:18:51;;;;;;;7.40;1.90;;;8.40;77.70;;;;;;5032566;28;20412;-76
2023/01/12 06:21:17;;;;;;;5.63;2.30;;;8.40;77.70;;;;;;5037676;28;20823;-76
2023/01/12 06:23:42;;;;;;;10.17;2.17;;;8.50;77.60;;;;;;5027887;28;20196;-76
2023/01/12 06:26:08;;;;;;;9.57;2.60;;;8.40;77.70;;;;;;5031198;28;20238;-75
2023/01/12 06:28:36;;;;;;;15.00;2.20;;;8.40;77.70;;;;;;5035951;28;20284;-75
2023/01/12 06:31:04;;;;;;;6.93;2.60;;;8.40;77.80;;;;;;5033316;28;20459;-74
2023/01/12 06:33:30;;;;;;;6.63;2.20;;;8.40;77.70;;;;;;5035500;28;20427;-74
2023/01/12 06:35:56;;;;;;;7.23;2.57;;;8.50;77.70;;;;;;5029803;28;20412;-75
2023/01/12 06:38:23;;;;;;;8.63;2.00;;;8.40;78.00;;;;;;5030610;28;20421;-75
2023/01/12 06:40:50;;;;;;;5.43;2.17;;;8.40;78.00;;;;;;5035442;28;20419;-75
2023/01/12 06:43:15;;;;;;;13.63;2.10;;;8.40;78.00;;;;;;5034564;28;20486;-75
2023/01/12 06:45:41;;;;;;;7.47;2.20;;;8.40;78.00;;;;;;5040657;28;20412;-75
2023/01/12 06:48:07;;;;;;;11.17;2.73;;;8.40;78.00;;;;;;5040260;28;20203;-76
2023/01/12 06:50:34;;;;;;;6.00;2.03;;;8.40;78.00;;;;;;5042472;28;20613;-75
2023/01/12 06:53:01;;;;;;;10.80;2.23;;;8.40;78.00;;;;;;5039461;28;20213;-76
2023/01/12 06:55:27;;;;;;;8.43;2.40;;;8.40;78.10;;;;;;5039266;28;20785;-75
2023/01/12 06:57:52;;;;;;;8.43;2.37;;;8.40;78.10;;;;;;5035688;28;20470;-75
2023/01/12 07:00:18;;;;;;;8.47;2.47;;;8.40;78.10;;;;;;5037439;28;20186;-74
2023/01/12 07:02:44;;;;;;;7.00;2.37;;;8.40;78.10;;;;;;5037472;28;20201;-75
2023/01/12 07:05:09;;;;;;;8.17;2.27;;;8.40;78.10;;;;;;5034541;28;20423;-75
2023/01/12 07:07:36;;;;;;;7.57;2.70;;;8.50;78.10;;;;;;5032107;28;20257;-75
2023/01/12 07:10:03;;;;;;;5.03;1.93;;;8.50;78.10;;;;;;5036233;28;20420;-76
2023/01/12 07:12:29;;;;;;;7.00;1.70;;;8.50;78.10;;;;;;5035894;28;20224;-74
2023/01/12 07:14:55;;;;;;;8.13;2.00;;;8.50;78.00;;;;;;5034732;28;20428;-75
2023/01/12 07:17:20;;;;;;;5.83;1.80;;;8.50;78.00;;;;;;5031496;28;20212;-76
2023/01/12 07:19:46;;;;;;;10.33;2.13;;;8.50;77.80;;;;;;5034354;28;20511;-75
2023/01/12 07:22:11;;;;;;;8.37;2.00;;;8.50;77.70;;;;;;5031836;28;20186;-75
2023/01/12 07:24:37;;;;;;;6.13;1.87;;;8.60;77.60;;;;;;5041579;28;20181;-76
2023/01/12 07:27:03;;;;;;;6.33;2.07;;;8.60;77.00;;;;;;5036290;28;20664;-74
2023/01/12 07:29:28;;;;;;;4.90;2.20;;;8.70;76.80;;;;;;5037321;28;20204;-75
2023/01/12 07:31:54;;;;;;;7.30;1.70;;;8.70;76.70;;;;;;5032552;28;20753;-76
2023/01/12 07:34:19;;;;;;;7.80;1.90;;;8.70;76.40;;;;;;5028658;28;20181;-75
2023/01/12 07:36:49;;;;;;;9.80;2.67;;;8.80;76.40;;;;;;5019430;28;20209;-76
2023/01/12 07:39:15;;;;;;;5.23;1.73;;;8.80;76.10;;;;;;5025185;28;20199;-75
2023/01/12 07:44:25;;;;;;;5.80;2.17;;;8.80;75.70;;;;;;5027261;28;21206;-75
2023/01/12 07:46:51;;;;;;;5.90;1.93;;;8.90;75.50;;;;;;5022074;28;20464;-75
2023/01/12 07:49:16;;;;;;;5.53;2.07;;;8.90;75.40;;;;;;5025837;28;20241;-75
2023/01/12 07:51:42;;;;;;;6.60;2.47;;;8.90;75.40;;;;;;5025045;28;20264;-76
2023/01/12 07:54:08;;;;;;;6.03;2.00;;;8.90;75.40;;;;;;5032743;28;20173;-74
2023/01/12 07:56:33;;;;;;;5.67;2.00;;;8.90;75.10;;;;;;5025917;28;20244;-75
2023/01/12 07:58:59;;;;;;;7.40;1.90;;;8.90;75.10;;;;;;5031618;28;20628;-75
2023/01/12 08:01:24;;;;;;;4.00;1.83;;;8.90;74.90;;;;;;5031014;28;20189;-75
2023/01/12 08:03:50;;;;;;;8.87;2.43;;;8.90;74.90;;;;;;5028979;28;20197;-74
2023/01/12 08:06:17;;;;;;;9.10;1.83;;;8.90;75.10;;;;;;5028124;28;20304;-76
2023/01/12 08:08:42;;;;;;;9.83;2.20;;;8.90;74.90;;;;;;5030871;28;20185;-76
2023/01/12 08:11:09;;;;;;;7.60;2.23;;;8.90;74.90;;;;;;5033312;28;20494;-76
2023/01/12 08:13:36;;;;;;;7.07;1.70;;;8.80;74.90;;;;;;5026798;28;20216;-75
2023/01/12 08:16:07;;;;;;;4.40;2.27;;;8.80;75.10;;;;;;5026813;28;20428;-76
2023/01/12 08:18:38;;;;;;;7.30;2.23;;;8.90;74.90;;;;;;5022026;28;20496;-76
2023/01/12 08:21:09;;;;;;;4.43;1.80;;;8.90;75.10;;;;;;5028282;28;20403;-75
2023/01/12 08:24:03;;;;;;;5.53;1.97;;;8.90;75.10;;;;;;5024510;28;20451;-75
2023/01/12 08:26:34;;;;;;;4.37;1.67;;;9.00;74.90;;;;;;5023122;28;20456;-74
2023/01/12 08:29:10;;;;;;;5.63;1.70;;;8.90;74.80;;;;;;5026199;28;20418;-76
2023/01/12 08:31:36;;;;;;;8.10;1.53;;;9.00;75.10;;;;;;5028133;28;20521;-74
2023/01/12 08:34:03;;;;;;;6.73;1.50;;;9.00;74.80;;;;;;5027941;28;20872;-77
2023/01/12 08:36:30;;;;;;;4.40;1.70;;;9.00;74.90;;;;;;5028223;28;20467;-77
2023/01/12 08:38:56;;;;;;;4.00;1.87;;;9.00;75.10;;;;;;5027534;28;20919;-76
2023/01/12 08:41:31;;;;;;;4.80;1.57;;;9.00;75.10;;;;;;5022651;28;20436;-76
2023/01/12 08:44:07;;;;;;;10.17;1.53;;;9.00;75.10;;;;;;5030508;28;20423;-77
2023/01/12 08:46:35;;;;;;;3.97;1.43;;;9.00;75.10;;;;;;5030682;28;20441;-76
2023/01/12 08:49:03;;;;;;;3.90;1.53;;;9.00;74.90;;;;;;5032432;28;20998;-76
2023/01/12 08:51:30;;;;;;;5.77;2.00;;;9.00;75.10;;;;;;5030202;28;20466;-76
2023/01/12 08:53:56;;;;;;;4.83;1.80;;;9.00;75.10;;;;;;5030391;28;20430;-75
2023/01/12 08:56:21;;;;;;;5.17;2.10;;;9.00;75.20;;;;;;5028059;28;20538;-75
2023/01/12 08:58:47;;;;;;;3.23;1.67;;;9.00;75.10;;;;;;5031158;28;20203;-76
2023/01/12 09:01:15;;;;;;;5.50;1.80;;;9.00;75.10;;;;;;5024372;28;20181;-75
2023/01/12 09:03:43;;;;;;;5.97;1.80;;;9.00;75.20;;;;;;5023567;28;20443;-76
2023/01/12 09:06:09;;;;;;;5.43;2.27;;;9.00;75.20;;;;;;5022498;28;20444;-75
2023/01/12 09:08:34;;;;;;;8.07;1.80;;;9.00;75.20;;;;;;5036413;28;20446;-76
2023/01/12 09:11:04;;;;;;;6.60;1.80;;;9.10;75.20;;;;;;5033120;28;20931;-75
2023/01/12 09:13:33;;;;;;;12.30;1.90;;;9.10;75.10;;;;;;5037256;28;20177;-75
2023/01/12 09:16:07;;;;;;;8.90;1.93;;;9.10;75.20;;;;;;5035616;28;20497;-74
2023/01/12 09:18:34;;;;;;;5.73;1.80;;;9.10;75.20;;;;;;5020968;28;20471;-75
2023/01/12 09:21:11;;;;;;;4.27;1.70;;;9.10;75.40;;;;;;5026093;28;20446;-76
2023/01/12 09:23:37;;;;;;;5.60;2.10;;;9.10;75.40;;;;;;5013171;28;20428;-75
2023/01/12 09:26:06;;;;;;;5.67;1.67;;;9.10;75.40;;;;;;5027211;28;20447;-76
2023/01/12 09:28:33;;;;;;;10.70;2.20;;;9.20;75.40;;;;;;5024371;28;20766;-77
2023/01/12 09:31:19;;;;;;;3.13;1.53;;;9.20;75.40;;;;;;5032357;28;20416;-76
2023/01/12 09:33:45;;;;;;;8.00;1.90;;;9.30;75.40;;;;;;5031500;28;20435;-75
2023/01/12 09:36:13;;;;;;;8.20;1.83;;;9.30;75.40;;;;;;5033683;28;20471;-75
2023/01/12 09:38:40;;;;;;;5.90;1.60;;;9.30;75.40;;;;;;5022379;28;20427;-76
2023/01/12 09:47:36;;;;;;;6.77;2.07;;;9.40;75.80;;;;;;5025297;28;20846;-75
2023/01/12 09:50:24;;;;;;;11.13;1.60;;;9.50;75.80;;;;;;5028372;28;20412;-76
2023/01/12 09:52:59;;;;;;;5.90;1.90;;;9.50;75.70;;;;;;5027180;28;21024;-74
2023/01/12 09:55:29;;;;;;;8.50;1.70;;;9.50;75.50;;;;;;5030936;28;20422;-76
2023/01/12 09:58:20;;;;;;;6.13;2.30;;;9.50;75.70;;;;;;5027746;28;21061;-76
2023/01/12 10:00:55;;;;;;;4.10;2.07;;;9.60;75.50;;;;;;5026608;28;20440;-76
2023/01/12 10:03:34;;;;;;;9.37;1.60;;;9.60;75.40;;;;;;5030116;28;20424;-75
2023/01/12 10:06:00;;;;;;;8.20;2.33;;;9.70;75.10;;;;;;5020351;28;20409;-75
2023/01/12 10:08:37;;;;;;;7.37;2.13;;;9.70;75.20;;;;;;5028652;28;20455;-77
2023/01/12 10:11:20;;;;;;;4.87;1.60;;;9.70;74.60;;;;;;5026844;28;20952;-74
2023/01/12 10:14:13;;;;;;;2.43;1.33;;;9.80;74.80;;;;;;5029721;28;20420;-76
2023/01/12 10:16:53;;;;;;;4.00;1.43;;;9.80;74.50;;;;;;5026101;28;20459;-76
2023/01/12 10:19:57;;;;;;;5.87;1.90;;;9.90;74.30;;;;;;5027034;28;20474;-76
2023/01/12 10:22:38;;;;;;;5.67;1.77;;;9.90;74.30;;;;;;5032752;28;20415;-76
2023/01/12 10:25:24;;;;;;;10.10;1.83;;;9.90;74.00;;;;;;5030254;28;20425;-75
2023/01/12 10:27:53;;;;;;;9.37;1.63;;;10.00;74.00;;;;;;5032800;28;20632;-76
2023/01/12 10:30:30;;;;;;;7.90;1.80;;;10.00;74.00;;;;;;5033300;28;20787;-76
2023/01/12 10:32:56;;;;;;;7.00;1.70;;;10.00;73.90;;;;;;5030588;28;20477;-76
2023/01/12 10:35:24;;;;;;;9.03;2.13;;;10.00;73.90;;;;;;5030183;28;20607;-76
2023/01/12 10:37:52;;;;;;;4.50;1.70;;;10.10;73.70;;;;;;5032029;28;20457;-76
2023/01/12 10:40:25;;;;;;;4.77;1.70;;;10.10;73.50;;;;;;5028388;28;20411;-76
2023/01/12 10:43:20;;;;;;;6.93;1.73;;;10.20;73.20;;;;;;5035010;28;20474;-75
2023/01/12 10:46:01;;;;;;;4.30;1.63;;;10.20;73.00;;;;;;5028652;28;20424;-75
2023/01/12 10:48:26;;;;;;;5.27;1.87;;;10.20;73.20;;;;;;5028551;28;20407;-76
2023/01/12 10:50:58;;;;;;;3.97;1.53;;;10.20;73.00;;;;;;5032976;28;20433;-76
2023/01/12 10:53:30;;;;;;;4.97;1.77;;;10.10;73.30;;;;;;5029884;28;20242;-75
2023/01/12 10:55:56;;;;;;;4.07;1.33;;;10.10;73.30;;;;;;5032873;28;20427;-75
2023/01/12 10:58:28;;;;;;;5.37;1.50;;;10.20;73.20;;;;;;5026193;28;20459;-75
2023/01/12 11:00:53;;;;;;;3.63;1.60;;;10.20;73.00;;;;;;5032188;28;20834;-75
2023/01/12 11:03:30;;;;;;;4.13;1.63;;;10.20;72.90;;;;;;5032400;28;20439;-75
2023/01/12 11:05:55;;;;;;;4.70;1.40;;;10.20;72.70;;;;;;5031306;28;20177;-76
2023/01/12 11:08:27;;;;;;;3.30;1.30;;;10.30;72.90;;;;;;5029094;28;20446;-76
2023/01/12 11:10:53;;;;;;;5.03;1.67;;;10.30;72.70;;;;;;5031231;28;20616;-75
2023/01/12 11:13:35;;;;;;;3.00;1.20;;;10.30;72.60;;;;;;5031112;28;20436;-77
2023/01/12 11:16:06;;;;;;;7.87;1.53;;;10.40;72.30;;;;;;5025575;28;20191;-77
2023/01/12 11:18:43;;;;;;;4.17;1.10;;;10.30;72.40;;;;;;5027808;28;20423;-76
2023/01/12 11:21:11;;;;;;;3.50;1.10;;;10.40;72.30;;;;;;5030398;28;20479;-77
2023/01/12 11:23:43;;;;;;;2.87;1.17;;;10.40;72.10;;;;;;5030110;28;20828;-76
2023/01/12 11:26:26;;;;;;;2.03;1.00;;;10.40;72.30;;;;;;5029564;28;20462;-76
2023/01/12 11:28:58;;;;;;;4.63;1.30;;;10.40;72.30;;;;;;5029048;28;20954;-75
2023/01/12 11:31:27;;;;;;;3.00;1.70;;;10.40;72.40;;;;;;5031528;28;20480;-75
2023/01/12 11:34:01;;;;;;;2.57;1.23;;;10.40;72.60;;;;;;5027098;28;20443;-76
2023/01/12 11:36:34;;;;;;;2.53;1.00;;;10.40;72.60;;;;;;5023065;28;20565;-76
2023/01/12 11:39:04;;;;;;;2.70;1.10;;;10.30;72.60;;;;;;5025595;28;20415;-76
2023/01/12 11:41:36;;;;;;;2.10;1.37;;;10.40;72.70;;;;;;5024093;28;20420;-77
2023/01/12 11:44:27;;;;;;;3.33;1.13;;;10.40;72.70;;;;;;5026716;28;20527;-76
2023/01/12 11:47:01;;;;;;;5.37;1.17;;;10.50;72.70;;;;;;5030619;28;20521;-77
2023/01/12 11:49:48;;;;;;;3.27;1.37;;;10.50;72.60;;;;;;5023436;28;20419;-75
2023/01/12 11:52:15;;;;;;;3.90;1.10;;;10.50;72.70;;;;;;5028970;28;20464;-76
2023/01/12 11:54:41;;;;;;;3.40;1.10;;;10.50;72.90;;;;;;5037815;28;20930;-77
2023/01/12 11:57:40;;;;;;;2.50;1.13;;;10.50;72.90;;;;;;5029415;28;20463;-76
2023/01/12 12:00:08;;;;;;;2.50;1.00;;;10.40;73.20;;;;;;5033023;28;20423;-76
2023/01/12 12:02:50;;;;;;;2.40;1.10;;;10.40;73.30;;;;;;5041103;28;20447;-76
2023/01/12 12:05:37;;;;;;;1.60;0.90;;;10.40;73.60;;;;;;5036441;28;20435;-76
2023/01/12 12:08:21;;;;;;;3.20;1.60;;;10.40;73.60;;;;;;5029987;28;20492;-76
2023/01/12 12:11:12;;;;;;;2.30;1.07;;;10.30;73.90;;;;;;5020252;28;20983;-78
2023/01/12 12:13:43;;;;;;;5.17;1.00;;;10.30;74.00;;;;;;5025034;28;20424;-77
2023/01/12 12:16:27;;;;;;;3.40;1.13;;;10.30;74.20;;;;;;5025964;28;21207;-77
2023/01/12 12:19:29;;;;;;;3.63;1.30;;;10.20;74.30;;;;;;5021506;28;20428;-77
2023/01/12 12:22:13;;;;;;;5.70;1.30;;;10.30;74.30;;;;;;5024489;28;20446;-77
2023/01/12 12:24:59;;;;;;;5.20;1.30;;;10.40;74.20;;;;;;5030783;28;20412;-75
2023/01/12 12:27:45;;;;;;;5.03;1.23;;;10.50;73.70;;;;;;5027197;28;20483;-77
2023/01/12 12:30:38;;;;;;;7.60;1.30;;;10.40;73.70;;;;;;5030396;28;20420;-77
2023/01/12 12:33:06;;;;;;;4.40;1.60;;;10.40;73.60;;;;;;5024830;28;20833;-76
2023/01/12 12:36:01;;;;;;;5.27;1.60;;;10.50;73.70;;;;;;5029624;28;20412;-77
2023/01/12 12:38:39;;;;;;;7.93;1.10;;;10.40;73.70;;;;;;5027018;28;20482;-76
2023/01/12 12:47:28;;;;;;;6.00;1.20;;;10.40;73.90;;;;;;5025069;28;20543;-76
2023/01/12 12:49:56;;;;;;;4.90;1.17;;;10.50;73.90;;;;;;5029471;28;20514;-76
2023/01/12 12:52:24;;;;;;;4.07;1.10;;;10.50;73.70;;;;;;5034308;28;20551;-78
2023/01/12 12:54:52;;;;;;;2.83;1.03;;;10.50;74.00;;;;;;5032590;28;20424;-79
2023/01/12 12:57:17;;;;;;;3.73;1.80;;;10.50;73.90;;;;;;5031301;28;20498;-78
2023/01/12 12:59:58;;;;;;;5.20;1.20;;;10.60;73.70;;;;;;5028618;28;20419;-80
2023/01/12 13:02:53;;;;;;;1.83;1.20;;;10.50;73.90;;;;;;5029918;28;20181;-79
2023/01/12 13:05:39;;;;;;;3.80;1.10;;;10.60;74.00;;;;;;5023164;28;20457;-78
2023/01/12 13:08:23;;;;;;;3.17;1.20;;;10.60;74.00;;;;;;5029843;28;20954;-78
2023/01/12 13:10:51;;;;;;;1.93;1.10;;;10.60;73.90;;;;;;5027857;28;20482;-79
2023/01/12 13:13:37;;;;;;;4.83;1.10;;;10.70;74.00;;;;;;5034521;28;20464;-78
2023/01/12 13:16:32;;;;;;;6.43;1.30;;;10.60;74.00;;;;;;5033314;28;20408;-80
2023/01/12 13:18:57;;;;;;;4.00;1.00;;;10.60;74.20;;;;;;5036682;28;20428;-78
2023/01/12 13:21:26;;;;;;;3.33;1.20;;;10.60;74.20;;;;;;5033680;28;20434;-79
2023/01/12 13:24:11;;;;;;;2.13;1.00;;;10.60;74.30;;;;;;5033754;28;20606;-79
2023/01/12 13:26:39;;;;;;;2.83;1.13;;;10.60;74.60;;;;;;5019736;28;20549;-79
2023/01/12 13:29:22;;;;;;;3.03;0.90;;;10.50;74.80;;;;;;5029706;28;20466;-79
2023/01/12 13:32:18;;;;;;;1.47;0.90;;;10.50;74.90;;;;;;5026280;28;20478;-78
2023/01/12 13:34:45;;;;;;;2.13;0.90;;;10.50;74.80;;;;;;5027368;28;20436;-79
2023/01/12 13:37:21;;;;;;;1.10;1.00;;;10.50;75.10;;;;;;5032313;28;21032;-76
2023/01/12 13:40:07;;;;;;;1.53;0.80;;;10.40;75.10;;;;;;5026135;28;20420;-77
2023/01/12 13:45:19;;;;;;;2.53;1.50;;;10.50;75.20;;;;;;5026607;28;20427;-76
2023/01/12 13:47:48;;;;;;;2.00;1.40;;;10.50;75.10;;;;;;5027919;28;20833;-76